Time;durP1;ratioP1;P1;durP2;ratioP2;P2;SDS_P1;SDS_P2;PMS_P1;PMS_P2;Temp;Humidity;BMP_temperature;BMP_pressure;BME280_temperature;BME280_humidity;BME280_pressure;Samples;Min_cycle;Max_cycle;Signal;HPM_P1;HPM_P2
2022/02/14 00:01:06;;;;;;;;;;;;;;;14.45;43.42;100258.88;4922172;28;127736;-57
2022/02/14 00:03:32;;;;;;;;;;;;;;;14.45;42.94;100261.59;4940444;28;97801;-63
2022/02/14 00:05:59;;;;;;;;;;;;;;;14.43;42.95;100256.47;4938810;28;126753;-63
2022/02/14 00:08:25;;;;;;;;;;;;;;;14.43;43.03;100255.69;4940180;28;99228;-63
2022/02/14 00:10:51;;;;;;;;;;;;;;;14.42;42.99;100254.88;4922096;28;98038;-63
2022/02/14 00:13:17;;;;;;;;;;;;;;;14.41;43.03;100247.81;4919458;28;117545;-63
2022/02/14 00:15:43;;;;;;;;;;;;;;;14.40;43.18;100251.66;4919550;28;128125;-56
2022/02/14 00:18:09;;;;;;;;;;;;;;;14.39;43.09;100244.63;4920555;28;98634;-56
2022/02/14 00:20:35;;;;;;;;;;;;;;;14.38;43.23;100236.75;4923682;28;106307;-63
2022/02/14 00:23:01;;;;;;;;;;;;;;;14.37;43.11;100237.88;4935259;28;117328;-57
2022/02/14 00:25:27;;;;;;;;;;;;;;;14.36;42.99;100244.41;4942169;28;98707;-64
2022/02/14 00:27:53;;;;;;;;;;;;;;;14.35;43.19;100240.09;4941567;28;127275;-56
2022/02/14 00:30:19;;;;;;;;;;;;;;;14.33;43.20;100240.38;4926880;28;97790;-57
2022/02/14 00:32:46;;;;;;;;;;;;;;;14.33;43.17;100243.09;4924121;28;97919;-57
2022/02/14 00:35:13;;;;;;;;;;;;;;;14.31;42.83;100239.88;4922843;28;98498;-63
2022/02/14 00:37:40;;;;;;;;;;;;;;;14.31;42.93;100239.09;4927138;28;98368;-63
2022/02/14 00:40:06;;;;;;;;;;;;;;;14.28;42.83;100221.50;4942500;28;97923;-56
2022/02/14 00:42:32;;;;;;;;;;;;;;;14.28;43.00;100235.03;4942423;28;97660;-62
2022/02/14 00:44:58;;;;;;;;;;;;;;;14.28;43.16;100228.81;4941755;28;116608;-57
2022/02/14 00:47:24;;;;;;;;;;;;;;;14.27;43.11;100228.03;4942515;28;129241;-63
2022/02/14 00:49:50;;;;;;;;;;;;;;;14.25;43.11;100231.00;4942351;28;98477;-64
2022/02/14 00:52:16;;;;;;;;;;;;;;;14.24;42.72;100229.41;4942557;28;98024;-56
2022/02/14 00:54:43;;;;;;;;;;;;;;;14.24;43.26;100231.31;4941387;28;129312;-56
2022/02/14 00:57:09;;;;;;;;;;;;;;;14.22;43.01;100233.50;4941933;28;98139;-63
2022/02/14 00:59:35;;;;;;;;;;;;;;;14.21;42.75;100234.63;4942966;28;97896;-56
2022/02/14 01:02:01;;;;;;;;;;;;;;;14.19;42.84;100231.41;4942088;28;98044;-56
2022/02/14 01:04:27;;;;;;;;;;;;;;;14.19;43.14;100226.00;4939467;28;122019;-63
2022/02/14 01:06:53;;;;;;;;;;;;;;;14.18;43.07;100224.38;4940565;28;128165;-58
2022/02/14 01:09:19;;;;;;;;;;;;;;;14.17;42.89;100217.34;4936197;28;125629;-63
2022/02/14 01:11:45;;;;;;;;;;;;;;;14.15;42.81;100216.84;4952929;28;117489;-56
2022/02/14 01:14:11;;;;;;;;;;;;;;;14.16;43.02;100218.44;4921703;28;127465;-64
2022/02/14 01:16:37;;;;;;;;;;;;;;;14.14;42.74;100202.47;4920932;28;128228;-64
2022/02/14 01:19:03;;;;;;;;;;;;;;;14.14;42.80;100205.19;4921855;28;98777;-64
2022/02/14 01:21:29;;;;;;;;;;;;;;;14.12;42.69;100206.59;4939395;28;117530;-56
2022/02/14 01:23:55;;;;;;;;;;;;;;;14.13;42.88;100200.06;4942347;28;108968;-57
2022/02/14 01:26:21;;;;;;;;;;;;;;;14.11;42.74;100197.66;4940271;28;117874;-57
2022/02/14 01:28:47;;;;;;;;;;;;;;;14.12;42.71;100198.47;4941001;28;125870;-63
2022/02/14 01:31:13;;;;;;;;;;;;;;;14.10;42.65;100189.81;4940635;28;116790;-64
2022/02/14 01:33:38;;;;;;;;;;;;;;;14.09;42.69;100182.78;4942525;28;98282;-56
2022/02/14 01:36:04;;;;;;;;;;;;;;;14.08;42.58;100178.47;4940793;28;127611;-57
2022/02/14 01:38:30;;;;;;;;;;;;;;;14.06;42.86;100181.47;4940795;28;126718;-56
2022/02/14 01:40:56;;;;;;;;;;;;;;;14.05;42.67;100179.88;4940803;28;117630;-64
2022/02/14 01:43:22;;;;;;;;;;;;;;;14.05;43.08;100181.78;4940721;28;126898;-57
2022/02/14 01:45:50;;;;;;;;;;;;;;;14.03;43.00;100179.38;4939558;28;119918;-57
2022/02/14 01:48:16;;;;;;;;;;;;;;;14.02;42.66;100171.53;4940165;28;127338;-56
2022/02/14 01:50:44;;;;;;;;;;;;;;;13.99;42.98;100168.31;4940865;28;97786;-56
2022/02/14 01:53:09;;;;;;;;;;;;;;;14.00;42.78;100164.50;4968439;28;120157;-63
2022/02/14 01:55:35;;;;;;;;;;;;;;;13.98;42.86;100163.97;4951652;28;128143;-57
2022/02/14 01:58:02;;;;;;;;;;;;;;;13.98;42.75;100158.56;4921837;28;97929;-63
2022/02/14 02:00:29;;;;;;;;;;;;;;;13.96;42.66;100159.97;4922238;28;98152;-63
2022/02/14 02:02:55;;;;;;;;;;;;;;;13.95;42.48;100148.34;4923794;28;98184;-64
2022/02/14 02:05:22;;;;;;;;;;;;;;;13.94;42.41;100145.91;4941738;28;98461;-63
2022/02/14 02:07:48;;;;;;;;;;;;;;;13.93;42.58;100145.09;4941715;28;98248;-56
2022/02/14 02:10:14;;;;;;;;;;;;;;;13.92;42.83;100142.72;4940895;28;97848;-56
2022/02/14 02:12:52;;;;;;;;;;;;;;;13.92;42.56;100143.50;4942048;28;99973;-56
2022/02/14 02:15:20;;;;;;;;;;;;;;;13.91;42.73;100128.38;4939328;28;99510;-57
2022/02/14 02:17:46;;;;;;;;;;;;;;;13.91;42.67;100139.19;4921982;28;120285;-56
2022/02/14 02:20:13;;;;;;;;;;;;;;;13.90;42.83;100136.78;4908258;28;98598;-56
2022/02/14 02:22:40;;;;;;;;;;;;;;;13.88;42.76;100128.94;4921521;28;98394;-56
2022/02/14 02:25:06;;;;;;;;;;;;;;;13.88;42.78;100126.25;4935045;28;98231;-56
2022/02/14 02:27:32;;;;;;;;;;;;;;;13.87;42.59;100123.81;4922911;28;99866;-62
2022/02/14 02:29:59;;;;;;;;;;;;;;;13.86;42.50;100128.44;4939768;28;116247;-56
2022/02/14 02:32:27;;;;;;;;;;;;;;;13.83;42.61;100118.19;4940284;28;100230;-63
2022/02/14 02:34:53;;;;;;;;;;;;;;;13.83;42.55;100120.09;4941009;28;98584;-64
2022/02/14 02:37:19;;;;;;;;;;;;;;;13.83;42.55;100117.38;4938090;28;128288;-56
2022/02/14 02:39:45;;;;;;;;;;;;;;;13.82;42.51;100124.72;4921007;28;97875;-57
2022/02/14 02:42:13;;;;;;;;;;;;;;;13.82;42.71;100110.38;4920617;28;97969;-63
2022/02/14 02:44:40;;;;;;;;;;;;;;;13.80;42.69;100112.59;4938678;28;98961;-63
2022/02/14 02:47:08;;;;;;;;;;;;;;;13.78;42.46;100109.34;4941083;28;98492;-64
2022/02/14 02:49:34;;;;;;;;;;;;;;;13.75;42.52;100103.44;4939836;28;109309;-64
2022/02/14 02:52:00;;;;;;;;;;;;;;;13.74;42.49;100098.31;4940148;28;123906;-57
2022/02/14 02:54:26;;;;;;;;;;;;;;;13.72;42.47;100100.53;4940232;28;102467;-63
2022/02/14 02:56:53;;;;;;;;;;;;;;;13.71;42.36;100098.88;4940537;28;98653;-64
2022/02/14 02:59:20;;;;;;;;;;;;;;;13.70;42.37;100098.09;4939986;28;97937;-56
2022/02/14 03:01:46;;;;;;;;;;;;;;;13.69;42.48;100096.50;4939710;28;98039;-64
2022/02/14 03:04:13;;;;;;;;;;;;;;;13.67;42.47;100095.97;4940181;28;98647;-56
2022/02/14 03:06:39;;;;;;;;;;;;;;;13.66;42.54;100096.28;4940379;28;98028;-57
2022/02/14 03:09:06;;;;;;;;;;;;;;;13.64;42.32;100093.06;4940182;28;98250;-64
2022/02/14 03:11:32;;;;;;;;;;;;;;;13.61;42.48;100086.34;4928648;28;98138;-56
2022/02/14 03:13:58;;;;;;;;;;;;;;;13.61;42.54;100091.75;4952186;28;98481;-64
2022/02/14 03:16:25;;;;;;;;;;;;;;;13.60;42.32;100086.66;4930604;28;98488;-63
2022/02/14 03:18:50;;;;;;;;;;;;;;;13.59;42.55;100091.22;4941068;28;97839;-57
2022/02/14 03:21:19;;;;;;;;;;;;;;;13.58;42.52;100078.00;4938938;28;128326;-63
2022/02/14 03:23:45;;;;;;;;;;;;;;;13.56;42.37;100085.59;4940661;28;99328;-56
2022/02/14 03:26:11;;;;;;;;;;;;;;;13.54;42.50;100080.50;4934839;28;119807;-63
2022/02/14 03:28:37;;;;;;;;;;;;;;;13.53;42.68;100080.81;4920645;28;115719;-57
2022/02/14 03:31:03;;;;;;;;;;;;;;;13.53;42.35;100078.88;4919856;28;128247;-61
2022/02/14 03:33:29;;;;;;;;;;;;;;;13.51;42.23;100070.25;4919583;28;126951;-57
2022/02/14 03:35:55;;;;;;;;;;;;;;;13.50;42.53;100074.88;4920584;28;98499;-64
2022/02/14 03:38:21;;;;;;;;;;;;;;;13.49;42.46;100072.47;4921669;28;117373;-56
2022/02/14 03:40:47;;;;;;;;;;;;;;;13.49;42.28;100069.75;4930790;28;128385;-56
2022/02/14 03:43:13;;;;;;;;;;;;;;;13.47;42.24;100067.31;4940503;28;108222;-63
2022/02/14 03:45:40;;;;;;;;;;;;;;;13.46;42.37;100065.72;4938613;28;128242;-56
2022/02/14 03:48:06;;;;;;;;;;;;;;;13.46;42.23;100056.81;4901674;28;97905;-56
2022/02/14 03:50:32;;;;;;;;;;;;;;;13.45;42.54;100057.91;4897908;28;120410;-57
2022/02/14 03:52:58;;;;;;;;;;;;;;;13.44;42.31;100064.41;4928489;28;126607;-64
2022/02/14 03:55:24;;;;;;;;;;;;;;;13.42;42.35;100053.06;4923248;28;127754;-56
2022/02/14 03:57:50;;;;;;;;;;;;;;;13.40;42.34;100047.13;4924438;28;97948;-56
2022/02/14 04:00:17;;;;;;;;;;;;;;;13.37;42.46;100045.84;4923840;28;98496;-63
2022/02/14 04:02:43;;;;;;;;;;;;;;;13.36;42.35;100044.25;4923648;28;99999;-56
2022/02/14 04:05:12;;;;;;;;;;;;;;;13.34;42.43;100043.72;4922422;28;128086;-63
2022/02/14 04:07:38;;;;;;;;;;;;;;;13.34;42.15;100045.63;4938800;28;98184;-56
2022/02/14 04:10:05;;;;;;;;;;;;;;;13.32;42.22;100039.69;4922623;28;126568;-56
2022/02/14 04:12:31;;;;;;;;;;;;;;;13.31;42.26;100033.47;4938756;28;99820;-56
2022/02/14 04:14:57;;;;;;;;;;;;;;;13.30;42.21;100031.88;4923307;28;119913;-57
2022/02/14 04:17:24;;;;;;;;;;;;;;;13.29;42.18;100030.28;4924437;28;98032;-56
2022/02/14 04:19:50;;;;;;;;;;;;;;;13.29;42.12;100026.78;4923422;28;98638;-64
2022/02/14 04:22:16;;;;;;;;;;;;;;;13.29;42.32;100026.78;4922436;28;127987;-56
2022/02/14 04:24:41;;;;;;;;;;;;;;;13.27;42.32;100013.53;4922201;28;127539;-63
2022/02/14 04:27:07;;;;;;;;;;;;;;;13.25;42.23;100008.41;4923216;28;116823;-63
2022/02/14 04:29:33;;;;;;;;;;;;;;;13.24;42.11;100006.81;4921932;28;127644;-57
2022/02/14 04:31:59;;;;;;;;;;;;;;;13.24;42.20;100006.81;4922380;28;128744;-63
2022/02/14 04:34:25;;;;;;;;;;;;;;;13.23;42.29;100007.91;4931225;28;127626;-62
2022/02/14 04:36:51;;;;;;;;;;;;;;;13.23;42.22;100015.22;4940226;28;98315;-63
2022/02/14 04:39:17;;;;;;;;;;;;;;;13.21;42.14;100001.97;4914354;28;99180;-63
2022/02/14 04:41:43;;;;;;;;;;;;;;;13.19;42.34;99993.31;4923213;28;128338;-64
2022/02/14 04:44:10;;;;;;;;;;;;;;;13.20;42.31;99988.69;4922774;28;127860;-64
2022/02/14 04:46:36;;;;;;;;;;;;;;;13.20;42.20;99989.53;4922256;28;109967;-57
2022/02/14 04:49:06;;;;;;;;;;;;;;;13.21;42.42;99982.22;4921764;28;129284;-57
2022/02/14 04:51:32;;;;;;;;;;;;;;;13.20;42.13;99980.59;4922403;28;99079;-58
2022/02/14 04:53:58;;;;;;;;;;;;;;;13.18;42.17;99974.69;4904299;28;116065;-56
2022/02/14 04:56:24;;;;;;;;;;;;;;;13.18;42.13;99977.38;4922585;28;113298;-63
2022/02/14 04:58:50;;;;;;;;;;;;;;;13.15;42.33;99965.25;4922591;28;128424;-56
2022/02/14 05:01:16;;;;;;;;;;;;;;;13.16;42.34;99969.53;4942364;28;128159;-63
2022/02/14 05:03:42;;;;;;;;;;;;;;;13.16;42.43;99974.97;4942780;28;98443;-57
2022/02/14 05:06:08;;;;;;;;;;;;;;;13.16;42.31;99966.84;4946425;28;116341;-63
2022/02/14 05:08:34;;;;;;;;;;;;;;;13.16;42.34;99968.75;4942158;28;97994;-56
2022/02/14 05:11:00;;;;;;;;;;;;;;;13.16;42.42;99968.75;4941400;28;126421;-63
2022/02/14 05:13:26;;;;;;;;;;;;;;;13.15;42.17;99969.84;4942298;28;99529;-63
2022/02/14 05:15:52;;;;;;;;;;;;;;;13.16;42.40;99968.75;4930932;28;117327;-64
2022/02/14 05:18:18;;;;;;;;;;;;;;;13.15;42.40;99967.16;4936191;28;97972;-63
2022/02/14 05:20:44;;;;;;;;;;;;;;;13.14;42.23;99963.66;4941003;28;129026;-63
2022/02/14 05:23:10;;;;;;;;;;;;;;;13.15;42.18;99956.31;4940921;28;127676;-64
2022/02/14 05:25:36;;;;;;;;;;;;;;;13.15;42.29;99964.44;4941621;28;97895;-63
2022/02/14 05:28:06;;;;;;;;;;;;;;;13.14;42.16;99963.66;4940440;28;98646;-63
2022/02/14 05:30:32;;;;;;;;;;;;;;;13.15;42.39;99959.81;4926575;28;105568;-56
2022/02/14 05:32:58;;;;;;;;;;;;;;;13.15;42.40;99950.91;4921212;28;121053;-63
2022/02/14 05:35:24;;;;;;;;;;;;;;;13.14;42.15;99955.53;4919302;28;97972;-63
2022/02/14 05:37:51;;;;;;;;;;;;;;;13.15;42.29;99956.31;4934268;28;127449;-57
2022/02/14 05:40:18;;;;;;;;;;;;;;;13.15;42.30;99956.31;4934670;28;99013;-62
2022/02/14 05:42:44;;;;;;;;;;;;;;;13.16;42.45;99960.63;4936891;28;98117;-56
2022/02/14 05:45:10;;;;;;;;;;;;;;;13.15;42.32;99953.63;4937196;28;116245;-56
2022/02/14 05:47:36;;;;;;;;;;;;;;;13.14;42.70;99950.13;4931331;28;124832;-56
2022/02/14 05:50:02;;;;;;;;;;;;;;;13.16;42.46;99963.34;4924878;28;122985;-56
2022/02/14 05:52:28;;;;;;;;;;;;;;;13.16;42.39;99963.34;4935609;28;99782;-56
2022/02/14 05:54:55;;;;;;;;;;;;;;;13.16;42.60;99966.03;4932085;28;97822;-56
2022/02/14 05:57:21;;;;;;;;;;;;;;;13.16;42.33;99974.16;4934371;28;98423;-57
2022/02/14 05:59:47;;;;;;;;;;;;;;;13.17;42.55;99959.56;4937206;28;99655;-56
2022/02/14 06:02:13;;;;;;;;;;;;;;;13.16;42.46;99961.44;4936560;28;98189;-56
2022/02/14 06:04:39;;;;;;;;;;;;;;;13.16;42.41;99963.34;4937343;28;97936;-56
2022/02/14 06:07:06;;;;;;;;;;;;;;;13.16;42.50;99966.84;4928421;28;123314;-56
2022/02/14 06:09:32;;;;;;;;;;;;;;;13.15;42.33;99962.53;4937534;28;115601;-56
2022/02/14 06:11:58;;;;;;;;;;;;;;;13.16;42.45;99971.44;4940177;28;122206;-56
2022/02/14 06:14:24;;;;;;;;;;;;;;;13.16;42.47;99974.97;4940536;28;118651;-56
2022/02/14 06:16:50;;;;;;;;;;;;;;;13.16;42.47;99966.84;4936253;28;128893;-56
2022/02/14 06:19:16;;;;;;;;;;;;;;;13.17;42.60;99970.38;4920381;28;123247;-56
2022/02/14 06:21:42;;;;;;;;;;;;;;;13.17;42.47;99962.25;4949689;28;127588;-56
2022/02/14 06:24:08;;;;;;;;;;;;;;;13.16;42.47;99971.44;4920620;28;117788;-56
2022/02/14 06:26:34;;;;;;;;;;;;;;;13.17;42.56;99965.75;4937947;28;98302;-56
2022/02/14 06:29:01;;;;;;;;;;;;;;;13.18;42.37;99967.38;4921908;28;98914;-56
2022/02/14 06:31:27;;;;;;;;;;;;;;;13.20;42.46;99964.34;4920956;28;97804;-56
2022/02/14 06:33:53;;;;;;;;;;;;;;;13.21;42.49;99966.78;4929294;28;98026;-56
2022/02/14 06:36:19;;;;;;;;;;;;;;;13.22;42.47;99965.66;4939699;28;100482;-56
2022/02/14 06:38:45;;;;;;;;;;;;;;;13.24;42.48;99977.03;4914221;28;101615;-56
2022/02/14 06:41:11;;;;;;;;;;;;;;;13.25;42.62;99965.13;4938816;28;118170;-56
2022/02/14 06:43:37;;;;;;;;;;;;;;;13.28;42.46;99966.41;4926752;28;106920;-63
2022/02/14 06:46:03;;;;;;;;;;;;;;;13.29;42.69;99965.31;4920302;28;128242;-56
2022/02/14 06:48:29;;;;;;;;;;;;;;;13.31;42.72;99962.31;4929197;28;115068;-63
2022/02/14 06:50:57;;;;;;;;;;;;;;;13.34;42.67;99967.13;4940471;28;98899;-57
2022/02/14 06:53:23;;;;;;;;;;;;;;;13.36;42.56;99973.88;4937972;28;97995;-64
2022/02/14 06:55:49;;;;;;;;;;;;;;;13.38;42.34;99973.56;4939837;28;113981;-64
2022/02/14 06:58:15;;;;;;;;;;;;;;;13.40;42.86;99971.34;4926495;28;98978;-57
2022/02/14 07:00:41;;;;;;;;;;;;;;;13.42;42.49;99974.56;4919989;28;98611;-57
2022/02/14 07:03:07;;;;;;;;;;;;;;;13.45;42.60;99965.84;4937870;28;98184;-57
2022/02/14 07:05:33;;;;;;;;;;;;;;;13.47;42.56;99967.16;4940278;28;98995;-57
2022/02/14 07:08:00;;;;;;;;;;;;;;;13.50;42.83;99957.63;4939749;28;111856;-57
2022/02/14 07:10:26;;;;;;;;;;;;;;;13.51;42.70;99957.31;4938555;28;98208;-56
2022/02/14 07:12:52;;;;;;;;;;;;;;;13.55;42.89;99956.72;4939987;28;97828;-56
2022/02/14 07:15:18;;;;;;;;;;;;;;;13.59;42.39;99955.84;4940197;28;98512;-57
2022/02/14 07:17:45;;;;;;;;;;;;;;;13.63;42.74;99951.41;4940645;28;98486;-57
2022/02/14 07:20:11;;;;;;;;;;;;;;;13.69;42.49;99946.72;4934134;28;97920;-57
2022/02/14 07:22:38;;;;;;;;;;;;;;;13.74;42.71;99943.91;4920060;28;117587;-56
2022/02/14 07:25:04;;;;;;;;;;;;;;;13.82;42.36;99945.13;4922826;28;98639;-57
2022/02/14 07:27:36;;;;;;;;;;;;;;;13.91;42.76;99935.16;4930346;28;115388;-57
2022/02/14 07:30:12;;;;;;;;;;;;;;;14.01;42.39;99940.41;4923307;28;99904;-57
2022/02/14 07:32:38;;;;;;;;;;;;;;;14.12;42.64;99954.53;4924482;28;99378;-57
2022/02/14 07:35:05;;;;;;;;;;;;;;;14.22;42.13;99951.59;4923045;28;121611;-57
2022/02/14 07:37:31;;;;;;;;;;;;;;;14.32;42.19;99956.81;4930893;28;123515;-57
2022/02/14 07:39:57;;;;;;;;;;;;;;;14.44;42.40;99957.09;4932021;28;127680;-57
2022/02/14 07:42:23;;;;;;;;;;;;;;;14.54;42.33;99941.72;4943590;28;109038;-64
2022/02/14 07:44:48;;;;;;;;;;;;;;;14.68;42.10;99945.19;4942649;28;128616;-64
2022/02/14 07:47:15;;;;;;;;;;;;;;;14.84;42.11;99943.72;4940225;28;128059;-63
2022/02/14 07:49:40;;;;;;;;;;;;;;;15.14;42.07;99949.53;4922902;28;98567;-64
2022/02/14 07:52:06;;;;;;;;;;;;;;;15.38;41.91;99946.47;4923182;28;111601;-64
2022/02/14 07:54:32;;;;;;;;;;;;;;;15.49;41.48;99936.16;4923609;28;128110;-63
2022/02/14 07:56:58;;;;;;;;;;;;;;;15.66;41.43;99930.81;4923581;28;127450;-64
2022/02/14 07:59:24;;;;;;;;;;;;;;;15.87;41.45;99939.97;4928067;28;126939;-64
2022/02/14 08:01:52;;;;;;;;;;;;;;;16.09;41.41;99930.94;4923847;28;116260;-64
2022/02/14 08:04:18;;;;;;;;;;;;;;;16.38;41.26;99929.53;4924493;28;98128;-64
2022/02/14 08:06:44;;;;;;;;;;;;;;;16.76;40.84;99929.72;4938125;28;128026;-64
2022/02/14 08:09:13;;;;;;;;;;;;;;;17.11;40.61;99927.75;4942104;28;124599;-64
2022/02/14 08:11:39;;;;;;;;;;;;;;;17.40;40.54;99934.41;4943566;28;97707;-64
2022/02/14 08:14:05;;;;;;;;;;;;;;;17.72;40.34;99927.53;4925248;28;98824;-64
2022/02/14 08:16:33;;;;;;;;;;;;;;;18.12;40.19;99921.78;4921842;28;127277;-64
2022/02/14 08:19:01;;;;;;;;;;;;;;;18.50;39.80;99920.84;4934952;28;98422;-64
2022/02/14 08:21:29;;;;;;;;;;;;;;;18.87;39.51;99930.84;4974022;28;97834;-63
2022/02/14 08:23:55;;;;;;;;;;;;;;;19.20;39.45;99921.81;4941075;28;98808;-64
2022/02/14 08:26:21;;;;;;;;;;;;;;;19.55;39.43;99918.69;4930871;28;103919;-64
2022/02/14 08:28:47;;;;;;;;;;;;;;;19.87;39.28;99917.03;4923949;28;99300;-64
2022/02/14 08:31:13;;;;;;;;;;;;;;;20.23;39.24;99918.13;4921486;28;117141;-64
2022/02/14 08:33:39;;;;;;;;;;;;;;;20.57;39.03;99920.34;4922368;28;115217;-64
2022/02/14 08:36:05;;;;;;;;;;;;;;;20.93;39.20;99921.34;4921913;28;120785;-65
2022/02/14 08:38:32;;;;;;;;;;;;;;;21.27;38.98;99917.16;4961454;28;97896;-64
2022/02/14 08:40:58;;;;;;;;;;;;;;;21.66;38.92;99914.63;4923082;28;99139;-64
2022/02/14 08:43:24;;;;;;;;;;;;;;;22.04;38.88;99918.63;4923287;28;98537;-61
2022/02/14 08:45:50;;;;;;;;;;;;;;;22.40;38.91;99909.28;4921934;28;128040;-65
2022/02/14 08:48:17;;;;;;;;;;;;;;;22.81;38.83;99915.19;4923260;28;112348;-65
2022/02/14 08:50:43;;;;;;;;;;;;;;;23.20;38.61;99915.97;4921396;28;98163;-65
2022/02/14 08:53:10;;;;;;;;;;;;;;;23.60;38.62;99906.41;4933385;28;98827;-64
2022/02/14 08:55:37;;;;;;;;;;;;;;;23.99;38.38;99907.06;4924582;28;99016;-57
2022/02/14 08:58:03;;;;;;;;;;;;;;;24.39;38.29;99907.63;4943020;28;97919;-65
2022/02/14 09:00:29;;;;;;;;;;;;;;;24.79;38.44;99911.63;4941631;28;102335;-58
2022/02/14 09:02:55;;;;;;;;;;;;;;;25.14;37.91;99908.50;4942793;28;98222;-65
2022/02/14 09:05:21;;;;;;;;;;;;;;;25.49;37.80;99899.75;4942281;28;99417;-65
2022/02/14 09:07:47;;;;;;;;;;;;;;;25.84;37.55;99893.75;4943353;28;97988;-65
2022/02/14 09:10:14;;;;;;;;;;;;;;;26.17;37.37;99892.78;4940654;28;115518;-64
2022/02/14 09:12:40;;;;;;;;;;;;;;;26.50;37.19;99879.91;4942689;28;99289;-58
2022/02/14 09:15:07;;;;;;;;;;;;;;;26.83;37.14;99881.59;4932944;28;99210;-58
2022/02/14 09:17:33;;;;;;;;;;;;;;;27.17;37.07;99870.22;4922740;28;97945;-59
2022/02/14 09:19:59;;;;;;;;;;;;;;;27.49;36.71;99877.75;4922703;28;97978;-64
2022/02/14 09:22:25;;;;;;;;;;;;;;;27.78;36.62;99871.00;4922020;28;127655;-58
2022/02/14 09:24:51;;;;;;;;;;;;;;;28.05;36.34;99865.03;4926516;28;129509;-59
2022/02/14 09:27:17;;;;;;;;;;;;;;;28.32;35.94;99857.81;4940850;28;127532;-65
2022/02/14 09:29:43;;;;;;;;;;;;;;;28.56;35.74;99860.88;4937225;28;105323;-65
2022/02/14 09:32:08;;;;;;;;;;;;;;;28.82;35.97;99851.25;4941287;28;125437;-65
2022/02/14 09:34:34;;;;;;;;;;;;;;;29.06;35.36;99853.09;4942089;28;98344;-65
2022/02/14 09:37:00;;;;;;;;;;;;;;;29.30;35.52;99853.31;4934741;28;127615;-65
2022/02/14 09:39:30;;;;;;;;;;;;;;;29.56;35.13;99863.00;4921940;28;102590;-58
2022/02/14 09:42:02;;;;;;;;;;;;;;;29.78;35.23;99861.59;4934695;28;98976;-58
2022/02/14 09:44:28;;;;;;;;;;;;;;;30.01;35.09;99872.06;4941282;28;106152;-66
2022/02/14 09:46:54;;;;;;;;;;;;;;;30.23;34.67;99864.31;4941124;28;117653;-65
2022/02/14 09:49:20;;;;;;;;;;;;;;;30.45;34.44;99861.25;4943055;28;97797;-65
2022/02/14 09:51:47;;;;;;;;;;;;;;;30.67;34.58;99857.00;4934302;28;98288;-58
2022/02/14 09:54:12;;;;;;;;;;;;;;;30.97;34.13;99861.75;4924522;28;119771;-58
2022/02/14 09:56:40;;;;;;;;;;;;;;;31.28;33.76;99856.09;4931180;28;126958;-58
2022/02/14 09:59:06;;;;;;;;;;;;;;;31.65;33.45;99866.22;4923537;28;107567;-59
2022/02/14 10:01:32;;;;;;;;;;;;;;;32.02;32.84;99867.16;4940408;28;128596;-58
2022/02/14 10:04:00;;;;;;;;;;;;;;;32.46;32.21;99870.66;4941848;28;97902;-65
2022/02/14 10:06:27;;;;;;;;;;;;;;;33.01;31.97;99862.69;4942199;28;98232;-61
2022/02/14 10:09:12;;;;;;;;;;;;;;;33.53;31.05;99864.66;4941059;28;107638;-58
2022/02/14 10:11:42;;;;;;;;;;;;;;;34.01;30.59;99863.75;4939517;28;97837;-66
2022/02/14 10:14:18;;;;;;;;;;;;;;;34.31;30.38;99868.09;4923059;28;98443;-59
2022/02/14 10:17:04;;;;;;;;;;;;;;;34.84;30.07;99865.72;4922031;28;98801;-58
2022/02/14 10:19:30;;;;;;;;;;;;;;;35.32;29.43;99854.59;4927848;28;98017;-66
2022/02/14 10:21:57;;;;;;;;;;;;;;;35.32;29.48;99865.81;4940530;28;100014;-67
2022/02/14 10:24:23;;;;;;;;;;;;;;;34.86;29.74;99854.06;4941937;28;98977;-58
2022/02/14 10:26:51;;;;;;;;;;;;;;;34.13;30.72;99851.06;4940262;28;99437;-58
2022/02/14 10:29:30;;;;;;;;;;;;;;;33.43;31.28;99849.69;4933830;28;97851;-66
2022/02/14 10:31:57;;;;;;;;;;;;;;;32.87;31.64;99839.47;4941263;28;97980;-58
2022/02/14 10:34:32;;;;;;;;;;;;;;;32.73;31.14;99845.38;4926300;28;98766;-58
2022/02/14 10:36:57;;;;;;;;;;;;;;;33.34;30.37;99849.53;4925803;28;98022;-65
2022/02/14 10:39:25;;;;;;;;;;;;;;;34.25;28.99;99843.94;4938310;28;116416;-66
2022/02/14 10:42:00;;;;;;;;;;;;;;;35.11;28.23;99844.91;4920288;28;98959;-65
2022/02/14 10:47:15;;;;;;;;;;;;;;;36.68;26.93;99838.53;4926638;28;98073;-57
2022/02/14 10:49:41;;;;;;;;;;;;;;;37.19;26.54;99843.69;4941696;28;97779;-56
2022/02/14 10:52:09;;;;;;;;;;;;;;;37.44;25.85;99839.84;4940809;28;98748;-56
2022/02/14 10:54:37;;;;;;;;;;;;;;;37.58;25.74;99845.66;4940102;28;117465;-57
2022/02/14 10:57:03;;;;;;;;;;;;;;;37.65;25.58;99830.50;4936174;28;98093;-56
2022/02/14 10:59:29;;;;;;;;;;;;;;;37.67;25.64;99833.63;4919241;28;98092;-57
2022/02/14 11:01:56;;;;;;;;;;;;;;;37.57;25.27;99830.03;4920343;28;99167;-56
2022/02/14 11:04:22;;;;;;;;;;;;;;;37.72;25.47;99823.78;4930397;28;98874;-56
2022/02/14 11:06:48;;;;;;;;;;;;;;;37.68;25.31;99823.16;4919609;28;127241;-56
2022/02/14 11:09:14;;;;;;;;;;;;;;;37.40;24.93;99813.91;4934780;28;117842;-56
2022/02/14 11:11:40;;;;;;;;;;;;;;;36.84;25.47;99810.22;4950336;28;127478;-56
2022/02/14 11:14:06;;;;;;;;;;;;;;;36.37;25.92;99808.44;4935537;28;98575;-56
2022/02/14 11:16:36;;;;;;;;;;;;;;;35.85;26.18;99807.16;4939402;28;98578;-55
2022/02/14 11:19:02;;;;;;;;;;;;;;;35.27;26.62;99801.97;4940558;28;97705;-56
2022/02/14 11:21:31;;;;;;;;;;;;;;;34.69;27.14;99803.81;4937539;28;98789;-56
2022/02/14 11:23:58;;;;;;;;;;;;;;;34.06;27.72;99790.53;4970655;28;122278;-56
2022/02/14 11:26:36;;;;;;;;;;;;;;;33.27;28.12;99786.28;4971071;28;98062;-56
2022/02/14 11:29:11;;;;;;;;;;;;;;;32.41;28.77;99779.97;4971006;28;98125;-63
2022/02/14 11:31:37;;;;;;;;;;;;;;;31.72;29.17;99781.78;4971078;28;98418;-63
2022/02/14 11:34:05;;;;;;;;;;;;;;;31.19;29.55;99786.28;4939551;28;126299;-56
2022/02/14 11:36:37;;;;;;;;;;;;;;;30.71;29.78;99776.31;4927794;28;97904;-63
2022/02/14 11:39:07;;;;;;;;;;;;;;;30.28;29.71;99777.72;4921323;28;97691;-63
2022/02/14 11:41:35;;;;;;;;;;;;;;;29.88;30.39;99779.38;4920558;28;98534;-55
2022/02/14 11:44:16;;;;;;;;;;;;;;;29.49;30.21;99777.00;4934322;28;99318;-56
2022/02/14 11:46:54;;;;;;;;;;;;;;;29.03;30.31;99773.47;4920154;28;98395;-55
2022/02/14 11:49:21;;;;;;;;;;;;;;;28.55;30.64;99765.88;4921504;28;97795;-63
2022/02/14 11:51:55;;;;;;;;;;;;;;;28.13;30.96;99769.63;4911721;28;99243;-56
2022/02/14 11:54:36;;;;;;;;;;;;;;;27.74;31.23;99773.34;4921584;28;99072;-63
2022/02/14 11:57:29;;;;;;;;;;;;;;;27.37;31.49;99769.06;4921133;28;98330;-56
2022/02/14 12:00:17;;;;;;;;;;;;;;;27.02;31.58;99763.53;4920827;28;97946;-56
2022/02/14 12:02:58;;;;;;;;;;;;;;;26.68;31.91;99761.13;4930104;28;98738;-56
2022/02/14 12:05:38;;;;;;;;;;;;;;;26.43;32.11;99761.84;4939973;28;98369;-55
2022/02/14 12:08:04;;;;;;;;;;;;;;;26.26;31.98;99756.31;4931190;28;98055;-62
2022/02/14 12:10:31;;;;;;;;;;;;;;;26.05;32.24;99757.00;4941408;28;117308;-62
2022/02/14 12:13:03;;;;;;;;;;;;;;;25.81;32.45;99755.72;4939712;28;97915;-55
2022/02/14 12:21:19;;;;;;;;;;;;;;;24.94;33.29;99748.03;4942768;28;97786;-62
2022/02/14 12:23:50;;;;;;;;;;;;;;;24.70;33.45;99741.91;4942361;28;98996;-55
2022/02/14 12:26:20;;;;;;;;;;;;;;;24.49;33.77;99734.25;4942474;28;98833;-63
2022/02/14 12:29:31;;;;;;;;;;;;;;;24.29;34.05;99734.78;4924315;28;97853;-62
2022/02/14 12:31:44;;;;;;;;;;;;;;;24.06;34.15;99732.19;4941808;28;97761;-62
2022/02/14 12:34:10;;;;;;;;;;;;;;;23.85;33.97;99739.00;4923551;28;98047;-55
2022/02/14 12:36:36;;;;;;;;;;;;;;;23.67;34.25;99735.25;4923532;28;101160;-62
2022/02/14 12:39:02;;;;;;;;;;;;;;;23.50;34.49;99734.59;4926864;28;98143;-54
2022/02/14 12:41:28;;;;;;;;;;;;;;;23.32;34.45;99725.31;4922232;28;103038;-63
2022/02/14 12:43:54;;;;;;;;;;;;;;;23.16;34.73;99732.91;4926687;28;128195;-62
2022/02/14 12:46:22;;;;;;;;;;;;;;;23.01;34.86;99737.38;4923393;28;126626;-55